sensor_id;sensor_type;location;lat;lon;timestamp;P1;durP1;ratioP1;P2;durP2;ratioP2
39218;SDS011;24934;52.752;6.964;2023-09-19T00:02:16;18.40;;;16.75;;
39218;SDS011;24934;52.752;6.964;2023-09-19T00:04:42;17.42;;;16.00;;
39218;SDS011;24934;52.752;6.964;2023-09-19T00:07:08;17.80;;;16.38;;
39218;SDS011;24934;52.752;6.964;2023-09-19T00:09:34;19.52;;;17.65;;
39218;SDS011;24934;52.752;6.964;2023-09-19T00:12:06;19.70;;;17.80;;
39218;SDS011;24934;52.752;6.964;2023-09-19T00:14:34;19.23;;;17.27;;
39218;SDS011;24934;52.752;6.964;2023-09-19T00:17:00;19.55;;;17.95;;
39218;SDS011;24934;52.752;6.964;2023-09-19T00:19:33;20.30;;;18.33;;
39218;SDS011;24934;52.752;6.964;2023-09-19T00:22:02;20.10;;;18.20;;
39218;SDS011;24934;52.752;6.964;2023-09-19T00:24:29;20.27;;;18.50;;
39218;SDS011;24934;52.752;6.964;2023-09-19T00:26:55;19.83;;;18.02;;
39218;SDS011;24934;52.752;6.964;2023-09-19T00:29:23;20.13;;;17.95;;
39218;SDS011;24934;52.752;6.964;2023-09-19T00:31:54;19.90;;;18.13;;
39218;SDS011;24934;52.752;6.964;2023-09-19T00:34:21;21.67;;;17.77;;
39218;SDS011;24934;52.752;6.964;2023-09-19T00:36:48;19.17;;;17.38;;
39218;SDS011;24934;52.752;6.964;2023-09-19T00:39:13;20.00;;;17.90;;
39218;SDS011;24934;52.752;6.964;2023-09-19T00:41:39;19.65;;;18.02;;
39218;SDS011;24934;52.752;6.964;2023-09-19T00:44:05;19.50;;;17.50;;
39218;SDS011;24934;52.752;6.964;2023-09-19T00:46:31;20.15;;;18.13;;
39218;SDS011;24934;52.752;6.964;2023-09-19T00:48:57;20.35;;;18.25;;
39218;SDS011;24934;52.752;6.964;2023-09-19T00:51:24;20.05;;;18.23;;
39218;SDS011;24934;52.752;6.964;2023-09-19T00:53:52;20.33;;;18.17;;
39218;SDS011;24934;52.752;6.964;2023-09-19T00:56:19;20.38;;;18.33;;
39218;SDS011;24934;52.752;6.964;2023-09-19T00:58:45;22.65;;;17.70;;
39218;SDS011;24934;52.752;6.964;2023-09-19T01:01:12;23.63;;;17.58;;
39218;SDS011;24934;52.752;6.964;2023-09-19T01:03:42;22.17;;;18.52;;
39218;SDS011;24934;52.752;6.964;2023-09-19T01:06:09;22.88;;;18.63;;
39218;SDS011;24934;52.752;6.964;2023-09-19T01:08:35;23.13;;;18.30;;
39218;SDS011;24934;52.752;6.964;2023-09-19T01:13:31;20.70;;;18.45;;
39218;SDS011;24934;52.752;6.964;2023-09-19T01:22:02;22.77;;;19.08;;
39218;SDS011;24934;52.752;6.964;2023-09-19T01:27:53;24.42;;;19.55;;
39218;SDS011;24934;52.752;6.964;2023-09-19T01:30:26;21.90;;;19.48;;
39218;SDS011;24934;52.752;6.964;2023-09-19T01:32:57;24.30;;;19.75;;
39218;SDS011;24934;52.752;6.964;2023-09-19T01:35:28;21.73;;;18.90;;
39218;SDS011;24934;52.752;6.964;2023-09-19T01:37:54;28.58;;;19.60;;
39218;SDS011;24934;52.752;6.964;2023-09-19T01:40:20;28.00;;;20.30;;
39218;SDS011;24934;52.752;6.964;2023-09-19T01:50:44;22.15;;;18.17;;
39218;SDS011;24934;52.752;6.964;2023-09-19T01:53:36;22.98;;;19.23;;
39218;SDS011;24934;52.752;6.964;2023-09-19T01:56:12;23.13;;;18.60;;
39218;SDS011;24934;52.752;6.964;2023-09-19T01:59:05;25.95;;;18.98;;
39218;SDS011;24934;52.752;6.964;2023-09-19T02:01:35;23.67;;;19.23;;
39218;SDS011;24934;52.752;6.964;2023-09-19T02:04:02;21.27;;;19.05;;
39218;SDS011;24934;52.752;6.964;2023-09-19T02:06:29;25.08;;;18.73;;
39218;SDS011;24934;52.752;6.964;2023-09-19T02:08:55;19.65;;;17.60;;
39218;SDS011;24934;52.752;6.964;2023-09-19T02:11:20;23.25;;;18.00;;
39218;SDS011;24934;52.752;6.964;2023-09-19T02:13:46;24.17;;;18.55;;
39218;SDS011;24934;52.752;6.964;2023-09-19T02:16:12;24.42;;;18.73;;
39218;SDS011;24934;52.752;6.964;2023-09-19T02:18:38;21.20;;;18.83;;
39218;SDS011;24934;52.752;6.964;2023-09-19T02:21:04;20.33;;;17.58;;
39218;SDS011;24934;52.752;6.964;2023-09-19T02:23:31;22.75;;;18.40;;
39218;SDS011;24934;52.752;6.964;2023-09-19T02:25:58;22.85;;;18.88;;
39218;SDS011;24934;52.752;6.964;2023-09-19T02:28:25;25.00;;;18.92;;
39218;SDS011;24934;52.752;6.964;2023-09-19T02:30:55;26.65;;;18.08;;
39218;SDS011;24934;52.752;6.964;2023-09-19T02:33:21;21.60;;;17.83;;
39218;SDS011;24934;52.752;6.964;2023-09-19T02:35:47;30.20;;;18.42;;
39218;SDS011;24934;52.752;6.964;2023-09-19T02:38:12;24.25;;;17.35;;
39218;SDS011;24934;52.752;6.964;2023-09-19T02:40:39;21.00;;;16.42;;
39218;SDS011;24934;52.752;6.964;2023-09-19T02:43:05;22.60;;;17.65;;
39218;SDS011;24934;52.752;6.964;2023-09-19T02:45:32;21.77;;;17.52;;
39218;SDS011;24934;52.752;6.964;2023-09-19T02:47:57;23.45;;;18.30;;
39218;SDS011;24934;52.752;6.964;2023-09-19T02:50:23;27.23;;;18.92;;
39218;SDS011;24934;52.752;6.964;2023-09-19T02:52:52;18.90;;;16.95;;
39218;SDS011;24934;52.752;6.964;2023-09-19T02:55:18;22.60;;;17.25;;
39218;SDS011;24934;52.752;6.964;2023-09-19T02:57:48;20.45;;;17.10;;
39218;SDS011;24934;52.752;6.964;2023-09-19T03:00:19;19.33;;;16.42;;
39218;SDS011;24934;52.752;6.964;2023-09-19T03:02:46;22.00;;;18.70;;
39218;SDS011;24934;52.752;6.964;2023-09-19T03:05:12;21.65;;;17.48;;
39218;SDS011;24934;52.752;6.964;2023-09-19T03:07:38;20.00;;;17.98;;
39218;SDS011;24934;52.752;6.964;2023-09-19T03:10:07;21.13;;;17.20;;
39218;SDS011;24934;52.752;6.964;2023-09-19T03:12:33;19.48;;;17.00;;
39218;SDS011;24934;52.752;6.964;2023-09-19T03:14:59;19.02;;;16.95;;
39218;SDS011;24934;52.752;6.964;2023-09-19T03:17:25;21.15;;;17.55;;
39218;SDS011;24934;52.752;6.964;2023-09-19T03:19:51;23.58;;;16.95;;
39218;SDS011;24934;52.752;6.964;2023-09-19T03:22:16;20.85;;;17.33;;
39218;SDS011;24934;52.752;6.964;2023-09-19T03:24:44;20.67;;;17.13;;
39218;SDS011;24934;52.752;6.964;2023-09-19T03:27:13;20.60;;;16.80;;
39218;SDS011;24934;52.752;6.964;2023-09-19T03:29:42;22.30;;;17.88;;
39218;SDS011;24934;52.752;6.964;2023-09-19T03:32:08;19.40;;;17.40;;
39218;SDS011;24934;52.752;6.964;2023-09-19T03:34:36;19.60;;;17.33;;
39218;SDS011;24934;52.752;6.964;2023-09-19T03:37:08;19.38;;;17.05;;
39218;SDS011;24934;52.752;6.964;2023-09-19T03:39:34;25.23;;;16.80;;
39218;SDS011;24934;52.752;6.964;2023-09-19T03:42:00;21.60;;;17.73;;
39218;SDS011;24934;52.752;6.964;2023-09-19T03:44:26;18.92;;;16.90;;
39218;SDS011;24934;52.752;6.964;2023-09-19T03:46:52;24.92;;;18.67;;
39218;SDS011;24934;52.752;6.964;2023-09-19T03:49:17;21.33;;;17.77;;
39218;SDS011;24934;52.752;6.964;2023-09-19T03:51:44;23.67;;;17.77;;
39218;SDS011;24934;52.752;6.964;2023-09-19T03:54:09;22.92;;;16.13;;
39218;SDS011;24934;52.752;6.964;2023-09-19T03:56:35;20.90;;;16.48;;
39218;SDS011;24934;52.752;6.964;2023-09-19T03:59:00;23.30;;;16.98;;
39218;SDS011;24934;52.752;6.964;2023-09-19T04:01:26;21.77;;;17.20;;
39218;SDS011;24934;52.752;6.964;2023-09-19T04:03:53;27.08;;;17.92;;
39218;SDS011;24934;52.752;6.964;2023-09-19T04:06:18;22.52;;;17.58;;
39218;SDS011;24934;52.752;6.964;2023-09-19T04:08:44;22.52;;;15.82;;
39218;SDS011;24934;52.752;6.964;2023-09-19T04:11:12;25.58;;;17.85;;
39218;SDS011;24934;52.752;6.964;2023-09-19T04:13:38;19.23;;;16.75;;
39218;SDS011;24934;52.752;6.964;2023-09-19T04:16:03;23.50;;;17.42;;
39218;SDS011;24934;52.752;6.964;2023-09-19T04:18:29;25.00;;;17.52;;
39218;SDS011;24934;52.752;6.964;2023-09-19T04:20:58;21.80;;;17.35;;
39218;SDS011;24934;52.752;6.964;2023-09-19T04:23:27;26.20;;;17.27;;
39218;SDS011;24934;52.752;6.964;2023-09-19T04:25:53;29.80;;;16.70;;
39218;SDS011;24934;52.752;6.964;2023-09-19T04:28:19;26.70;;;17.85;;
39218;SDS011;24934;52.752;6.964;2023-09-19T04:30:44;23.88;;;17.33;;
39218;SDS011;24934;52.752;6.964;2023-09-19T04:33:10;25.70;;;18.05;;
39218;SDS011;24934;52.752;6.964;2023-09-19T04:35:39;28.00;;;16.95;;
39218;SDS011;24934;52.752;6.964;2023-09-19T04:38:07;20.58;;;17.58;;
39218;SDS011;24934;52.752;6.964;2023-09-19T04:40:33;27.80;;;18.02;;
39218;SDS011;24934;52.752;6.964;2023-09-19T04:42:59;28.80;;;18.85;;
39218;SDS011;24934;52.752;6.964;2023-09-19T04:45:26;25.52;;;18.00;;
39218;SDS011;24934;52.752;6.964;2023-09-19T04:47:52;25.35;;;17.48;;
39218;SDS011;24934;52.752;6.964;2023-09-19T04:50:18;26.23;;;18.40;;
39218;SDS011;24934;52.752;6.964;2023-09-19T04:52:46;20.02;;;17.35;;
39218;SDS011;24934;52.752;6.964;2023-09-19T04:55:16;28.17;;;16.75;;
39218;SDS011;24934;52.752;6.964;2023-09-19T04:57:46;29.42;;;17.92;;
39218;SDS011;24934;52.752;6.964;2023-09-19T05:00:19;29.60;;;15.88;;
39218;SDS011;24934;52.752;6.964;2023-09-19T05:02:49;22.42;;;16.23;;
39218;SDS011;24934;52.752;6.964;2023-09-19T05:05:16;20.65;;;15.10;;
39218;SDS011;24934;52.752;6.964;2023-09-19T05:07:43;30.80;;;14.52;;
39218;SDS011;24934;52.752;6.964;2023-09-19T05:10:13;25.10;;;15.23;;
39218;SDS011;24934;52.752;6.964;2023-09-19T05:12:40;29.30;;;15.00;;
39218;SDS011;24934;52.752;6.964;2023-09-19T05:15:06;25.33;;;14.13;;
39218;SDS011;24934;52.752;6.964;2023-09-19T05:17:32;24.70;;;13.82;;
39218;SDS011;24934;52.752;6.964;2023-09-19T05:19:59;18.55;;;14.00;;
39218;SDS011;24934;52.752;6.964;2023-09-19T05:22:36;26.30;;;14.07;;
39218;SDS011;24934;52.752;6.964;2023-09-19T05:25:07;24.88;;;14.13;;
39218;SDS011;24934;52.752;6.964;2023-09-19T05:27:34;27.65;;;14.10;;
39218;SDS011;24934;52.752;6.964;2023-09-19T05:29:59;20.10;;;13.82;;
39218;SDS011;24934;52.752;6.964;2023-09-19T05:32:25;24.35;;;13.98;;
39218;SDS011;24934;52.752;6.964;2023-09-19T05:34:51;21.48;;;13.98;;
39218;SDS011;24934;52.752;6.964;2023-09-19T05:37:21;28.92;;;13.98;;
39218;SDS011;24934;52.752;6.964;2023-09-19T05:39:48;26.25;;;15.73;;
39218;SDS011;24934;52.752;6.964;2023-09-19T05:42:14;19.80;;;16.48;;
39218;SDS011;24934;52.752;6.964;2023-09-19T05:44:39;21.17;;;15.40;;
39218;SDS011;24934;52.752;6.964;2023-09-19T05:47:05;30.90;;;16.08;;
39218;SDS011;24934;52.752;6.964;2023-09-19T05:49:33;23.17;;;15.27;;
39218;SDS011;24934;52.752;6.964;2023-09-19T05:52:06;20.80;;;15.00;;
39218;SDS011;24934;52.752;6.964;2023-09-19T05:54:34;22.92;;;15.15;;
39218;SDS011;24934;52.752;6.964;2023-09-19T05:57:00;23.73;;;14.55;;
39218;SDS011;24934;52.752;6.964;2023-09-19T05:59:26;22.67;;;14.98;;
39218;SDS011;24934;52.752;6.964;2023-09-19T06:01:52;28.95;;;15.30;;
39218;SDS011;24934;52.752;6.964;2023-09-19T06:04:21;26.15;;;14.10;;
39218;SDS011;24934;52.752;6.964;2023-09-19T06:06:50;20.10;;;14.48;;
39218;SDS011;24934;52.752;6.964;2023-09-19T06:09:16;22.40;;;14.15;;
39218;SDS011;24934;52.752;6.964;2023-09-19T06:11:42;19.85;;;14.52;;
39218;SDS011;24934;52.752;6.964;2023-09-19T06:14:08;20.52;;;14.38;;
39218;SDS011;24934;52.752;6.964;2023-09-19T06:16:35;23.98;;;14.43;;
39218;SDS011;24934;52.752;6.964;2023-09-19T06:19:03;22.83;;;15.23;;
39218;SDS011;24934;52.752;6.964;2023-09-19T06:21:31;20.55;;;14.40;;
39218;SDS011;24934;52.752;6.964;2023-09-19T06:23:57;18.20;;;14.90;;
39218;SDS011;24934;52.752;6.964;2023-09-19T06:26:23;24.00;;;15.02;;
39218;SDS011;24934;52.752;6.964;2023-09-19T06:28:48;22.50;;;14.77;;
39218;SDS011;24934;52.752;6.964;2023-09-19T06:31:14;20.38;;;14.00;;
39218;SDS011;24934;52.752;6.964;2023-09-19T06:33:40;20.92;;;13.25;;
39218;SDS011;24934;52.752;6.964;2023-09-19T06:36:06;26.33;;;13.75;;
39218;SDS011;24934;52.752;6.964;2023-09-19T06:38:32;17.45;;;14.02;;
39218;SDS011;24934;52.752;6.964;2023-09-19T06:41:01;19.67;;;13.00;;
39218;SDS011;24934;52.752;6.964;2023-09-19T06:43:32;20.67;;;12.95;;
39218;SDS011;24934;52.752;6.964;2023-09-19T06:45:58;18.40;;;13.10;;
39218;SDS011;24934;52.752;6.964;2023-09-19T06:48:27;21.20;;;13.55;;
39218;SDS011;24934;52.752;6.964;2023-09-19T06:50:58;17.63;;;12.82;;
39218;SDS011;24934;52.752;6.964;2023-09-19T06:53:29;18.33;;;12.02;;
39218;SDS011;24934;52.752;6.964;2023-09-19T06:55:57;20.73;;;11.70;;
39218;SDS011;24934;52.752;6.964;2023-09-19T06:58:23;19.17;;;11.80;;
39218;SDS011;24934;52.752;6.964;2023-09-19T07:00:48;18.55;;;11.95;;
39218;SDS011;24934;52.752;6.964;2023-09-19T07:03:15;19.85;;;11.85;;
39218;SDS011;24934;52.752;6.964;2023-09-19T07:05:43;18.98;;;12.07;;
39218;SDS011;24934;52.752;6.964;2023-09-19T07:08:09;20.48;;;12.15;;
39218;SDS011;24934;52.752;6.964;2023-09-19T07:10:37;20.50;;;11.68;;
39218;SDS011;24934;52.752;6.964;2023-09-19T07:13:06;18.50;;;12.55;;
39218;SDS011;24934;52.752;6.964;2023-09-19T07:15:36;16.58;;;11.82;;
39218;SDS011;24934;52.752;6.964;2023-09-19T07:18:06;20.98;;;10.63;;
39218;SDS011;24934;52.752;6.964;2023-09-19T07:20:36;17.77;;;10.35;;
39218;SDS011;24934;52.752;6.964;2023-09-19T07:23:02;19.88;;;10.55;;
39218;SDS011;24934;52.752;6.964;2023-09-19T07:25:28;16.38;;;10.45;;
39218;SDS011;24934;52.752;6.964;2023-09-19T07:27:57;20.60;;;11.20;;
39218;SDS011;24934;52.752;6.964;2023-09-19T07:30:25;16.58;;;10.40;;
39218;SDS011;24934;52.752;6.964;2023-09-19T07:32:51;18.77;;;11.13;;
39218;SDS011;24934;52.752;6.964;2023-09-19T07:35:17;22.67;;;10.95;;
39218;SDS011;24934;52.752;6.964;2023-09-19T07:37:45;18.35;;;11.02;;
39218;SDS011;24934;52.752;6.964;2023-09-19T07:40:14;17.73;;;10.40;;
39218;SDS011;24934;52.752;6.964;2023-09-19T07:42:40;18.73;;;10.98;;
39218;SDS011;24934;52.752;6.964;2023-09-19T07:45:09;20.88;;;11.45;;
39218;SDS011;24934;52.752;6.964;2023-09-19T07:47:39;20.40;;;11.43;;
39218;SDS011;24934;52.752;6.964;2023-09-19T07:50:14;15.35;;;10.27;;
39218;SDS011;24934;52.752;6.964;2023-09-19T07:52:44;16.83;;;9.95;;
39218;SDS011;24934;52.752;6.964;2023-09-19T07:55:10;14.57;;;9.10;;
39218;SDS011;24934;52.752;6.964;2023-09-19T07:57:45;17.13;;;10.05;;
39218;SDS011;24934;52.752;6.964;2023-09-19T08:00:11;18.38;;;10.05;;
39218;SDS011;24934;52.752;6.964;2023-09-19T08:02:38;15.18;;;9.40;;
39218;SDS011;24934;52.752;6.964;2023-09-19T08:05:05;18.25;;;9.45;;
39218;SDS011;24934;52.752;6.964;2023-09-19T08:07:34;17.13;;;9.20;;
39218;SDS011;24934;52.752;6.964;2023-09-19T08:10:04;16.92;;;10.55;;
39218;SDS011;24934;52.752;6.964;2023-09-19T08:12:38;19.45;;;9.93;;
39218;SDS011;24934;52.752;6.964;2023-09-19T08:15:20;17.45;;;9.43;;
39218;SDS011;24934;52.752;6.964;2023-09-19T08:17:46;16.65;;;10.63;;
39218;SDS011;24934;52.752;6.964;2023-09-19T08:20:12;18.20;;;9.90;;
39218;SDS011;24934;52.752;6.964;2023-09-19T08:22:48;16.20;;;9.27;;
39218;SDS011;24934;52.752;6.964;2023-09-19T08:25:17;18.58;;;9.45;;
39218;SDS011;24934;52.752;6.964;2023-09-19T08:27:47;16.05;;;9.70;;
39218;SDS011;24934;52.752;6.964;2023-09-19T08:30:17;14.18;;;9.68;;
39218;SDS011;24934;52.752;6.964;2023-09-19T08:32:50;18.58;;;10.07;;
39218;SDS011;24934;52.752;6.964;2023-09-19T08:35:16;18.15;;;8.57;;
39218;SDS011;24934;52.752;6.964;2023-09-19T08:37:44;18.70;;;9.88;;
39218;SDS011;24934;52.752;6.964;2023-09-19T08:40:13;18.05;;;9.93;;
39218;SDS011;24934;52.752;6.964;2023-09-19T08:45:15;19.98;;;10.20;;
39218;SDS011;24934;52.752;6.964;2023-09-19T08:47:44;17.50;;;9.15;;
39218;SDS011;24934;52.752;6.964;2023-09-19T08:50:21;19.17;;;9.82;;
39218;SDS011;24934;52.752;6.964;2023-09-19T08:52:53;20.65;;;9.60;;
39218;SDS011;24934;52.752;6.964;2023-09-19T08:55:23;17.40;;;9.73;;
39218;SDS011;24934;52.752;6.964;2023-09-19T08:57:54;16.63;;;10.38;;
39218;SDS011;24934;52.752;6.964;2023-09-19T09:00:24;22.10;;;11.00;;
39218;SDS011;24934;52.752;6.964;2023-09-19T09:02:52;17.67;;;10.10;;
39218;SDS011;24934;52.752;6.964;2023-09-19T09:05:20;19.45;;;9.75;;
39218;SDS011;24934;52.752;6.964;2023-09-19T09:07:51;17.77;;;11.60;;
39218;SDS011;24934;52.752;6.964;2023-09-19T09:10:20;18.05;;;11.52;;
39218;SDS011;24934;52.752;6.964;2023-09-19T09:12:48;19.88;;;12.00;;
39218;SDS011;24934;52.752;6.964;2023-09-19T09:15:16;21.73;;;12.20;;
39218;SDS011;24934;52.752;6.964;2023-09-19T09:17:45;20.30;;;11.75;;
39218;SDS011;24934;52.752;6.964;2023-09-19T09:20:13;22.58;;;11.82;;
39218;SDS011;24934;52.752;6.964;2023-09-19T09:22:39;17.65;;;11.00;;
39218;SDS011;24934;52.752;6.964;2023-09-19T09:25:20;21.52;;;12.65;;
39218;SDS011;24934;52.752;6.964;2023-09-19T09:28:01;22.00;;;12.15;;
39218;SDS011;24934;52.752;6.964;2023-09-19T09:30:32;22.05;;;12.13;;
39218;SDS011;24934;52.752;6.964;2023-09-19T09:33:09;21.00;;;11.52;;
39218;SDS011;24934;52.752;6.964;2023-09-19T09:35:37;17.45;;;10.93;;
39218;SDS011;24934;52.752;6.964;2023-09-19T09:38:12;14.95;;;11.40;;
39218;SDS011;24934;52.752;6.964;2023-09-19T09:41:00;20.17;;;11.70;;
39218;SDS011;24934;52.752;6.964;2023-09-19T09:43:32;18.02;;;11.20;;
39218;SDS011;24934;52.752;6.964;2023-09-19T09:51:46;17.98;;;10.88;;
39218;SDS011;24934;52.752;6.964;2023-09-19T09:54:25;16.13;;;11.32;;
39218;SDS011;24934;52.752;6.964;2023-09-19T09:57:07;20.27;;;11.43;;
39218;SDS011;24934;52.752;6.964;2023-09-19T10:02:27;16.67;;;11.13;;
39218;SDS011;24934;52.752;6.964;2023-09-19T10:08:11;17.05;;;11.15;;
39218;SDS011;24934;52.752;6.964;2023-09-19T10:10:44;20.30;;;10.98;;
39218;SDS011;24934;52.752;6.964;2023-09-19T10:13:19;19.08;;;11.63;;
39218;SDS011;24934;52.752;6.964;2023-09-19T10:15:48;15.90;;;11.63;;
39218;SDS011;24934;52.752;6.964;2023-09-19T10:18:24;17.20;;;10.10;;
39218;SDS011;24934;52.752;6.964;2023-09-19T10:20:51;22.30;;;11.88;;
39218;SDS011;24934;52.752;6.964;2023-09-19T10:23:19;20.30;;;12.30;;
39218;SDS011;24934;52.752;6.964;2023-09-19T10:25:48;15.93;;;10.88;;
39218;SDS011;24934;52.752;6.964;2023-09-19T10:28:15;18.58;;;11.00;;
39218;SDS011;24934;52.752;6.964;2023-09-19T10:30:46;23.25;;;11.80;;
39218;SDS011;24934;52.752;6.964;2023-09-19T10:33:15;17.65;;;10.48;;
39218;SDS011;24934;52.752;6.964;2023-09-19T10:35:43;21.77;;;12.00;;
39218;SDS011;24934;52.752;6.964;2023-09-19T10:38:11;17.95;;;10.90;;
39218;SDS011;24934;52.752;6.964;2023-09-19T10:40:38;15.13;;;10.70;;
39218;SDS011;24934;52.752;6.964;2023-09-19T10:43:15;17.65;;;10.63;;
39218;SDS011;24934;52.752;6.964;2023-09-19T10:45:45;16.33;;;10.80;;
39218;SDS011;24934;52.752;6.964;2023-09-19T10:48:14;17.27;;;10.95;;
39218;SDS011;24934;52.752;6.964;2023-09-19T10:53:44;20.90;;;10.98;;
39218;SDS011;24934;52.752;6.964;2023-09-19T10:56:21;16.33;;;11.77;;
39218;SDS011;24934;52.752;6.964;2023-09-19T10:59:04;18.92;;;10.27;;
39218;SDS011;24934;52.752;6.964;2023-09-19T11:04:42;16.95;;;10.27;;
39218;SDS011;24934;52.752;6.964;2023-09-19T11:07:11;16.50;;;10.10;;
39218;SDS011;24934;52.752;6.964;2023-09-19T11:09:52;15.93;;;10.30;;
39218;SDS011;24934;52.752;6.964;2023-09-19T11:15:01;16.02;;;10.40;;
39218;SDS011;24934;52.752;6.964;2023-09-19T11:30:32;14.82;;;10.07;;
39218;SDS011;24934;52.752;6.964;2023-09-19T11:36:09;15.00;;;9.23;;
39218;SDS011;24934;52.752;6.964;2023-09-19T11:43:53;19.67;;;8.00;;
39218;SDS011;24934;52.752;6.964;2023-09-19T11:46:52;14.60;;;9.52;;
39218;SDS011;24934;52.752;6.964;2023-09-19T11:49:24;17.88;;;11.20;;
39218;SDS011;24934;52.752;6.964;2023-09-19T11:51:56;15.95;;;10.10;;
39218;SDS011;24934;52.752;6.964;2023-09-19T11:54:24;14.20;;;10.20;;
39218;SDS011;24934;52.752;6.964;2023-09-19T11:56:53;17.55;;;10.40;;
39218;SDS011;24934;52.752;6.964;2023-09-19T11:59:23;14.15;;;9.65;;
39218;SDS011;24934;52.752;6.964;2023-09-19T12:02:05;19.55;;;9.90;;
39218;SDS011;24934;52.752;6.964;2023-09-19T12:04:42;16.05;;;8.95;;
39218;SDS011;24934;52.752;6.964;2023-09-19T12:07:14;16.15;;;9.10;;
39218;SDS011;24934;52.752;6.964;2023-09-19T12:09:41;17.48;;;9.52;;
39218;SDS011;24934;52.752;6.964;2023-09-19T12:12:19;13.77;;;9.13;;
39218;SDS011;24934;52.752;6.964;2023-09-19T12:14:52;16.42;;;9.27;;
39218;SDS011;24934;52.752;6.964;2023-09-19T12:17:19;13.80;;;9.30;;
39218;SDS011;24934;52.752;6.964;2023-09-19T12:19:52;13.10;;;8.57;;
39218;SDS011;24934;52.752;6.964;2023-09-19T12:22:19;14.68;;;9.30;;
39218;SDS011;24934;52.752;6.964;2023-09-19T12:24:47;20.25;;;9.82;;
39218;SDS011;24934;52.752;6.964;2023-09-19T12:27:15;14.00;;;8.65;;
39218;SDS011;24934;52.752;6.964;2023-09-19T12:29:44;15.10;;;9.52;;
39218;SDS011;24934;52.752;6.964;2023-09-19T12:32:14;18.90;;;8.88;;
39218;SDS011;24934;52.752;6.964;2023-09-19T12:34:42;14.50;;;9.82;;
39218;SDS011;24934;52.752;6.964;2023-09-19T12:37:15;13.40;;;9.40;;
39218;SDS011;24934;52.752;6.964;2023-09-19T12:39:45;14.82;;;10.05;;
39218;SDS011;24934;52.752;6.964;2023-09-19T12:42:16;18.80;;;11.35;;
39218;SDS011;24934;52.752;6.964;2023-09-19T12:44:58;17.30;;;9.95;;
39218;SDS011;24934;52.752;6.964;2023-09-19T12:47:27;14.52;;;9.30;;
39218;SDS011;24934;52.752;6.964;2023-09-19T12:50:14;12.68;;;7.70;;
39218;SDS011;24934;52.752;6.964;2023-09-19T12:52:47;19.15;;;9.65;;
39218;SDS011;24934;52.752;6.964;2023-09-19T12:55:21;12.27;;;8.05;;
39218;SDS011;24934;52.752;6.964;2023-09-19T13:00:40;14.73;;;8.40;;
39218;SDS011;24934;52.752;6.964;2023-09-19T13:03:24;16.20;;;8.02;;
39218;SDS011;24934;52.752;6.964;2023-09-19T13:05:52;13.57;;;8.00;;
39218;SDS011;24934;52.752;6.964;2023-09-19T13:08:30;14.82;;;8.20;;
39218;SDS011;24934;52.752;6.964;2023-09-19T13:13:32;11.75;;;8.52;;
39218;SDS011;24934;52.752;6.964;2023-09-19T13:15:58;14.18;;;7.72;;
39218;SDS011;24934;52.752;6.964;2023-09-19T13:18:26;13.10;;;7.57;;
39218;SDS011;24934;52.752;6.964;2023-09-19T13:21:11;12.15;;;7.97;;
39218;SDS011;24934;52.752;6.964;2023-09-19T13:23:54;11.35;;;7.32;;
39218;SDS011;24934;52.752;6.964;2023-09-19T13:26:27;12.45;;;7.30;;
39218;SDS011;24934;52.752;6.964;2023-09-19T13:28:53;12.55;;;7.28;;
39218;SDS011;24934;52.752;6.964;2023-09-19T13:31:19;10.52;;;7.38;;
39218;SDS011;24934;52.752;6.964;2023-09-19T13:33:45;13.48;;;7.38;;
39218;SDS011;24934;52.752;6.964;2023-09-19T13:36:12;11.45;;;6.38;;
39218;SDS011;24934;52.752;6.964;2023-09-19T13:38:41;15.48;;;6.95;;
39218;SDS011;24934;52.752;6.964;2023-09-19T13:41:13;12.55;;;6.57;;
39218;SDS011;24934;52.752;6.964;2023-09-19T13:43:39;12.00;;;6.55;;
39218;SDS011;24934;52.752;6.964;2023-09-19T13:46:05;12.27;;;6.68;;
39218;SDS011;24934;52.752;6.964;2023-09-19T13:48:32;11.77;;;6.50;;
39218;SDS011;24934;52.752;6.964;2023-09-19T13:51:01;16.05;;;7.63;;
39218;SDS011;24934;52.752;6.964;2023-09-19T13:53:27;17.70;;;7.35;;
39218;SDS011;24934;52.752;6.964;2023-09-19T13:55:53;12.75;;;7.38;;
39218;SDS011;24934;52.752;6.964;2023-09-19T13:58:19;9.90;;;7.65;;
39218;SDS011;24934;52.752;6.964;2023-09-19T14:00:46;10.07;;;7.05;;
39218;SDS011;24934;52.752;6.964;2023-09-19T14:03:11;10.57;;;7.32;;
39218;SDS011;24934;52.752;6.964;2023-09-19T14:05:37;11.05;;;7.45;;
39218;SDS011;24934;52.752;6.964;2023-09-19T14:08:03;11.82;;;7.03;;
39218;SDS011;24934;52.752;6.964;2023-09-19T14:10:29;12.07;;;7.38;;
39218;SDS011;24934;52.752;6.964;2023-09-19T14:12:56;11.73;;;6.75;;
39218;SDS011;24934;52.752;6.964;2023-09-19T14:15:26;13.65;;;7.35;;
39218;SDS011;24934;52.752;6.964;2023-09-19T14:17:58;11.48;;;7.28;;
39218;SDS011;24934;52.752;6.964;2023-09-19T14:20:25;9.48;;;6.55;;
39218;SDS011;24934;52.752;6.964;2023-09-19T14:22:52;10.75;;;7.30;;
39218;SDS011;24934;52.752;6.964;2023-09-19T14:25:20;13.07;;;6.78;;
39218;SDS011;24934;52.752;6.964;2023-09-19T14:27:47;8.07;;;6.95;;
39218;SDS011;24934;52.752;6.964;2023-09-19T14:30:13;11.77;;;6.88;;
39218;SDS011;24934;52.752;6.964;2023-09-19T14:32:39;10.48;;;6.25;;
39218;SDS011;24934;52.752;6.964;2023-09-19T14:35:06;9.90;;;6.60;;
39218;SDS011;24934;52.752;6.964;2023-09-19T14:37:32;11.23;;;6.85;;
39218;SDS011;24934;52.752;6.964;2023-09-19T14:39:58;14.73;;;6.78;;
39218;SDS011;24934;52.752;6.964;2023-09-19T14:42:24;12.80;;;7.20;;
39218;SDS011;24934;52.752;6.964;2023-09-19T14:44:49;11.93;;;7.25;;
39218;SDS011;24934;52.752;6.964;2023-09-19T14:47:15;12.85;;;6.75;;
39218;SDS011;24934;52.752;6.964;2023-09-19T14:49:42;9.73;;;6.88;;
39218;SDS011;24934;52.752;6.964;2023-09-19T14:52:07;9.70;;;6.70;;
39218;SDS011;24934;52.752;6.964;2023-09-19T14:54:34;8.77;;;6.93;;
39218;SDS011;24934;52.752;6.964;2023-09-19T14:57:00;11.05;;;6.35;;
39218;SDS011;24934;52.752;6.964;2023-09-19T14:59:33;10.13;;;6.32;;
39218;SDS011;24934;52.752;6.964;2023-09-19T15:02:02;13.30;;;6.45;;
39218;SDS011;24934;52.752;6.964;2023-09-19T15:04:29;11.45;;;6.63;;
39218;SDS011;24934;52.752;6.964;2023-09-19T15:06:54;11.68;;;7.15;;
39218;SDS011;24934;52.752;6.964;2023-09-19T15:09:24;10.27;;;6.38;;
39218;SDS011;24934;52.752;6.964;2023-09-19T15:11:52;12.38;;;6.72;;
39218;SDS011;24934;52.752;6.964;2023-09-19T15:14:18;12.30;;;7.07;;
39218;SDS011;24934;52.752;6.964;2023-09-19T15:16:44;12.70;;;6.15;;
39218;SDS011;24934;52.752;6.964;2023-09-19T15:19:10;8.98;;;6.45;;
39218;SDS011;24934;52.752;6.964;2023-09-19T15:21:36;8.77;;;6.50;;
39218;SDS011;24934;52.752;6.964;2023-09-19T15:24:05;9.77;;;6.40;;
39218;SDS011;24934;52.752;6.964;2023-09-19T15:26:34;11.48;;;6.53;;
39218;SDS011;24934;52.752;6.964;2023-09-19T15:29:04;9.10;;;6.90;;
39218;SDS011;24934;52.752;6.964;2023-09-19T15:31:34;10.93;;;6.20;;
39218;SDS011;24934;52.752;6.964;2023-09-19T15:34:01;9.38;;;6.40;;
39218;SDS011;24934;52.752;6.964;2023-09-19T15:36:33;8.05;;;5.90;;
39218;SDS011;24934;52.752;6.964;2023-09-19T15:39:04;8.38;;;5.55;;
39218;SDS011;24934;52.752;6.964;2023-09-19T15:41:33;9.43;;;6.60;;
39218;SDS011;24934;52.752;6.964;2023-09-19T15:44:00;7.43;;;5.90;;
39218;SDS011;24934;52.752;6.964;2023-09-19T15:46:28;6.93;;;5.88;;